createdAt,value
2019-01-26T00:00:43.750Z,100332.23
2019-01-26T00:03:12.255Z,100326.20
2019-01-26T00:05:40.708Z,100321.20
2019-01-26T00:08:09.145Z,100303.01
2019-01-26T00:10:37.598Z,100297.52
2019-01-26T00:13:06.033Z,100306.76
2019-01-26T00:15:34.613Z,100290.73
2019-01-26T00:18:03.135Z,100278.08
2019-01-26T00:20:36.318Z,100282.09
2019-01-26T00:23:01.738Z,100280.64
2019-01-26T00:25:30.194Z,100267.73
2019-01-26T00:27:58.624Z,100274.64
2019-01-26T00:30:27.089Z,100262.72
2019-01-26T00:32:55.519Z,100257.72
2019-01-26T00:35:23.975Z,100256.73
2019-01-26T00:37:52.414Z,100258.30
2019-01-26T00:40:20.937Z,100254.03
2019-01-26T00:42:49.437Z,100255.72
2019-01-26T00:45:17.956Z,100258.28
2019-01-26T00:47:46.395Z,100250.96
2019-01-26T00:50:15.635Z,100252.67
2019-01-26T00:52:44.143Z,100244.66
2019-01-26T00:55:13.000Z,100239.52
2019-01-26T00:57:41.527Z,100227.73
2019-01-26T01:00:13.129Z,100227.23
2019-01-26T01:02:41.650Z,100219.36
2019-01-26T01:05:10.219Z,100220.20
2019-01-26T01:07:38.689Z,100211.70
2019-01-26T01:10:10.528Z,100201.36
2019-01-26T01:12:38.983Z,100196.39
2019-01-26T01:15:16.446Z,100199.41
2019-01-26T01:17:44.964Z,100197.58
2019-01-26T01:20:14.039Z,100198.91
2019-01-26T01:22:42.633Z,100191.59
2019-01-26T01:25:13.400Z,100185.78
2019-01-26T01:27:41.930Z,100184.45
2019-01-26T01:30:13.530Z,100184.45
2019-01-26T01:32:42.127Z,100181.62
2019-01-26T01:35:10.705Z,100174.80
2019-01-26T01:37:39.159Z,100173.84
2019-01-26T01:40:09.715Z,100168.49
2019-01-26T01:42:38.171Z,100165.17
2019-01-26T01:45:09.904Z,100166.02
2019-01-26T01:47:38.441Z,100167.35
2019-01-26T01:50:08.790Z,100153.03
2019-01-26T01:52:37.390Z,100160.41
2019-01-26T01:55:08.667Z,100151.43
2019-01-26T01:57:37.118Z,100149.41
2019-01-26T02:00:19.386Z,100149.67
2019-01-26T02:02:47.910Z,100142.59
2019-01-26T02:05:16.707Z,100135.27
2019-01-26T02:07:45.249Z,100130.57
2019-01-26T02:10:16.592Z,100135.91
2019-01-26T02:12:45.120Z,100128.86
2019-01-26T02:15:14.385Z,100124.00
2019-01-26T02:17:42.926Z,100116.83
2019-01-26T02:20:13.983Z,100119.38
2019-01-26T02:22:42.501Z,100119.23
2019-01-26T02:25:11.065Z,100114.38
2019-01-26T02:27:39.890Z,100119.95
2019-01-26T02:30:14.087Z,100128.81
2019-01-26T02:32:42.533Z,100111.43
2019-01-26T02:35:11.107Z,100107.27
2019-01-26T02:37:39.557Z,100110.31
2019-01-26T02:40:12.826Z,100104.97
2019-01-26T02:42:41.348Z,100102.48
2019-01-26T02:45:12.017Z,100104.55
2019-01-26T02:47:40.611Z,100102.02
2019-01-26T02:50:12.209Z,100100.53
2019-01-26T02:52:40.731Z,100093.84
2019-01-26T02:55:09.293Z,100098.08
2019-01-26T02:57:37.818Z,100099.77
2019-01-26T03:00:12.068Z,100095.97
2019-01-26T03:02:40.597Z,100102.50
2019-01-26T03:05:09.159Z,100095.66
2019-01-26T03:07:37.615Z,100097.09
2019-01-26T03:10:09.415Z,100088.42
2019-01-26T03:12:37.889Z,100083.86
2019-01-26T03:15:09.730Z,100079.84
2019-01-26T03:17:38.160Z,100097.08
2019-01-26T03:20:09.518Z,100093.22
2019-01-26T03:22:37.949Z,100094.21
2019-01-26T03:25:08.242Z,100089.70
2019-01-26T03:27:36.744Z,100092.72
2019-01-26T03:30:08.372Z,100085.53
2019-01-26T03:32:36.789Z,100083.86
2019-01-26T03:35:06.177Z,100087.22
2019-01-26T03:37:34.604Z,100077.85
2019-01-26T03:40:03.200Z,100077.73
2019-01-26T03:42:31.794Z,100073.56
2019-01-26T03:45:00.359Z,100078.79
2019-01-26T03:47:29.224Z,100072.94
2019-01-26T03:49:57.679Z,100067.93
2019-01-26T03:52:26.110Z,100067.43
2019-01-26T03:54:54.569Z,100065.81
2019-01-26T03:57:23.070Z,100050.27
2019-01-26T03:59:51.523Z,100049.61
2019-01-26T04:02:19.940Z,100050.32
2019-01-26T04:04:48.393Z,100044.81
2019-01-26T04:07:16.818Z,100043.48
2019-01-26T04:09:45.276Z,100046.86
2019-01-26T04:12:13.706Z,100045.19
2019-01-26T04:14:42.166Z,100047.20
2019-01-26T04:17:10.590Z,100043.19
2019-01-26T04:19:39.045Z,100049.09
2019-01-26T04:22:07.560Z,100045.92
2019-01-26T04:24:36.011Z,100046.30
2019-01-26T04:27:04.579Z,100046.30
2019-01-26T04:29:33.012Z,100043.47
2019-01-26T04:32:01.466Z,100043.30
2019-01-26T04:34:29.895Z,100036.83
2019-01-26T04:36:58.364Z,100039.72
2019-01-26T04:39:26.791Z,100040.41
2019-01-26T04:41:55.253Z,100040.12
2019-01-26T04:44:23.674Z,100033.98
2019-01-26T04:46:52.134Z,100032.23
2019-01-26T04:49:20.564Z,100034.09
2019-01-26T04:51:49.019Z,100026.61
2019-01-26T04:54:17.452Z,100034.72
2019-01-26T04:56:45.978Z,100030.15
2019-01-26T04:59:14.405Z,100024.84
2019-01-26T05:01:42.860Z,100023.21
2019-01-26T05:04:11.431Z,100017.11
2019-01-26T05:06:39.886Z,100013.34
2019-01-26T05:09:08.688Z,100012.59
2019-01-26T05:11:37.144Z,100007.70
2019-01-26T05:14:05.648Z,100005.89
2019-01-26T05:16:34.107Z,100008.11
2019-01-26T05:19:02.526Z,100006.48
2019-01-26T05:21:30.986Z,100006.18
2019-01-26T05:23:59.423Z,100003.34
2019-01-26T05:26:27.882Z,99993.95
2019-01-26T05:28:56.300Z,100005.63
2019-01-26T05:31:24.829Z,100005.53
2019-01-26T05:33:53.262Z,100004.39
2019-01-26T05:36:21.743Z,100006.77
2019-01-26T05:38:50.172Z,100011.33
2019-01-26T05:41:18.603Z,100005.97
2019-01-26T05:43:47.070Z,100005.70
2019-01-26T05:46:15.491Z,99995.67
2019-01-26T05:48:43.952Z,100000.17
2019-01-26T05:51:12.380Z,99995.84
2019-01-26T05:53:40.825Z,99994.70
2019-01-26T05:56:09.326Z,99994.03
2019-01-26T05:58:37.783Z,100001.27
2019-01-26T06:01:06.279Z,99992.59
2019-01-26T06:03:34.729Z,99987.81
2019-01-26T06:06:03.222Z,99995.05
2019-01-26T06:08:31.675Z,99991.20
2019-01-26T06:11:00.573Z,99994.75
2019-01-26T06:13:29.027Z,99979.88
2019-01-26T06:15:57.453Z,99974.17
2019-01-26T06:18:25.908Z,99983.62
2019-01-26T06:20:54.331Z,99973.33
2019-01-26T06:23:22.795Z,99973.33
2019-01-26T06:25:51.217Z,99971.83
2019-01-26T06:28:19.669Z,99967.62
2019-01-26T06:30:48.097Z,99975.88
2019-01-26T06:33:16.555Z,99966.48
2019-01-26T06:35:44.979Z,99980.23
2019-01-26T06:38:13.494Z,99977.07
2019-01-26T06:40:41.921Z,99970.87
2019-01-26T06:43:10.378Z,99970.34
2019-01-26T06:45:38.806Z,99967.12
2019-01-26T06:48:07.256Z,99970.51
2019-01-26T06:50:35.688Z,99967.98
2019-01-26T06:53:04.109Z,99970.41
2019-01-26T06:55:32.556Z,99965.09
2019-01-26T06:58:00.974Z,99965.11
2019-01-26T07:00:30.276Z,99960.09
2019-01-26T07:02:58.758Z,99961.45
2019-01-26T07:05:34.470Z,99957.94
2019-01-26T07:08:02.894Z,99961.86
2019-01-26T07:10:31.334Z,99958.18
2019-01-26T07:12:59.753Z,99962.60
2019-01-26T07:15:28.205Z,99965.14
2019-01-26T07:17:56.620Z,99970.72
2019-01-26T07:20:25.066Z,99972.79
2019-01-26T07:22:53.557Z,99966.77
2019-01-26T07:25:22.072Z,99963.72
2019-01-26T07:27:50.488Z,99960.72
2019-01-26T07:30:21.676Z,99951.67
2019-01-26T07:32:50.167Z,99958.92
2019-01-26T07:35:18.677Z,99959.07
2019-01-26T07:37:47.364Z,99956.89
2019-01-26T07:40:21.121Z,99950.02
2019-01-26T07:42:49.601Z,99954.70
2019-01-26T07:45:18.382Z,99957.25
2019-01-26T07:47:46.865Z,99962.96
2019-01-26T07:50:18.820Z,99966.83
2019-01-26T07:52:47.312Z,99965.33
2019-01-26T07:55:15.884Z,99965.33
2019-01-26T07:57:44.379Z,99966.50
2019-01-26T08:00:18.825Z,99962.83
2019-01-26T08:02:47.241Z,99958.76
2019-01-26T08:05:15.756Z,99955.09
2019-01-26T08:07:44.241Z,99959.45
2019-01-26T08:10:18.694Z,99958.62
2019-01-26T08:12:47.114Z,99953.60
2019-01-26T08:15:24.457Z,99957.31
2019-01-26T08:17:52.879Z,99947.38
2019-01-26T08:20:21.966Z,99941.83
2019-01-26T08:22:50.382Z,99949.39
2019-01-26T08:25:18.901Z,99950.58
2019-01-26T08:27:47.853Z,99951.41
2019-01-26T08:30:21.264Z,99949.92
2019-01-26T08:32:50.144Z,99944.69
2019-01-26T08:35:18.989Z,99942.49
2019-01-26T08:37:47.875Z,99938.13
2019-01-26T08:40:18.427Z,99943.17
2019-01-26T08:42:46.868Z,99937.80
2019-01-26T08:45:16.220Z,99941.48
2019-01-26T08:47:44.735Z,99936.95
2019-01-26T08:50:21.480Z,99949.56
2019-01-26T08:52:50.056Z,99948.37
2019-01-26T08:55:18.731Z,99954.45
2019-01-26T08:57:47.282Z,99962.02
2019-01-26T09:00:23.741Z,99957.14
2019-01-26T09:02:54.960Z,99960.34
2019-01-26T09:05:25.355Z,99959.31
2019-01-26T09:07:53.800Z,99965.03
2019-01-26T09:10:22.210Z,99969.75
2019-01-26T09:12:50.647Z,99968.73
2019-01-26T09:15:19.059Z,99963.70
2019-01-26T09:17:47.566Z,99968.89
2019-01-26T09:20:17.424Z,99964.52
2019-01-26T09:22:45.862Z,99962.00
2019-01-26T09:25:14.420Z,99958.78
2019-01-26T09:27:43.136Z,99964.85
2019-01-26T09:30:17.045Z,99959.59
2019-01-26T09:32:45.558Z,99963.98
2019-01-26T09:35:14.043Z,99965.13
2019-01-26T09:37:42.549Z,99965.12
2019-01-26T09:40:14.512Z,99962.25
2019-01-26T09:42:43.018Z,99956.70
2019-01-26T09:45:17.194Z,99951.62
2019-01-26T09:47:45.968Z,99952.79
2019-01-26T09:50:14.926Z,99953.61
2019-01-26T09:52:43.410Z,99951.73
2019-01-26T09:55:15.024Z,99953.08
2019-01-26T09:57:43.571Z,99951.22
2019-01-26T10:00:23.568Z,99952.73
2019-01-26T10:02:52.122Z,99954.23
2019-01-26T10:05:20.641Z,99940.41
2019-01-26T10:07:50.099Z,99942.70
2019-01-26T10:10:19.775Z,99934.08
2019-01-26T10:12:48.426Z,99940.28
2019-01-26T10:15:20.041Z,99953.42
2019-01-26T10:17:48.874Z,99946.16
2019-01-26T10:20:20.348Z,99950.58
2019-01-26T10:22:49.096Z,99948.59
2019-01-26T10:25:18.474Z,99947.22
2019-01-26T10:27:46.960Z,99952.58
2019-01-26T10:30:25.937Z,99954.91
2019-01-26T10:32:54.482Z,99958.60
2019-01-26T10:35:24.642Z,99956.71
2019-01-26T10:37:53.390Z,99960.22
2019-01-26T10:40:29.742Z,99961.05
2019-01-26T10:42:58.322Z,99953.82
2019-01-26T10:45:28.070Z,99952.80
2019-01-26T10:47:56.951Z,99950.59
2019-01-26T10:50:25.735Z,99946.67
2019-01-26T10:52:54.481Z,99949.82
2019-01-26T10:55:23.260Z,99950.98
2019-01-26T10:57:51.909Z,99950.23
2019-01-26T11:00:21.960Z,99949.97
2019-01-26T11:02:50.909Z,99946.23
2019-01-26T11:05:19.692Z,99945.84
2019-01-26T11:07:48.450Z,99942.11
2019-01-26T11:10:17.220Z,99933.73
2019-01-26T11:12:45.776Z,99941.35
2019-01-26T11:15:14.546Z,99933.61
2019-01-26T11:17:43.096Z,99938.34
2019-01-26T11:20:16.045Z,99943.58
2019-01-26T11:22:44.656Z,99940.56
2019-01-26T11:25:13.839Z,99939.20
2019-01-26T11:27:42.390Z,99932.81
2019-01-26T11:30:18.780Z,99930.59
2019-01-26T11:32:47.529Z,99933.13
2019-01-26T11:35:18.409Z,99917.93
2019-01-26T11:37:47.161Z,99917.93
2019-01-26T11:40:18.079Z,99909.44
2019-01-26T11:42:46.993Z,99905.38
2019-01-26T11:45:21.287Z,99905.38
2019-01-26T11:47:50.005Z,99902.33
2019-01-26T11:50:38.605Z,99902.17
2019-01-26T11:53:07.472Z,99900.82
2019-01-26T11:55:38.290Z,99896.45
2019-01-26T11:58:07.037Z,99893.04
2019-01-26T12:00:49.678Z,99890.30
2019-01-26T12:03:22.794Z,99888.18
2019-01-26T12:05:56.580Z,99882.11
2019-01-26T12:08:25.766Z,99882.11
2019-01-26T12:10:54.544Z,99885.13
2019-01-26T12:13:23.298Z,99873.54
2019-01-26T12:15:52.099Z,99873.54
2019-01-26T12:18:21.411Z,99886.16
2019-01-26T12:20:50.174Z,99892.80
2019-01-26T12:23:18.660Z,99882.91
2019-01-26T12:25:47.404Z,99882.91
2019-01-26T12:28:16.183Z,99891.17
2019-01-26T12:30:44.928Z,99881.77
2019-01-26T12:33:13.828Z,99890.38
2019-01-26T12:35:42.477Z,99888.23
2019-01-26T12:38:11.259Z,99873.43
2019-01-26T12:40:40.042Z,99878.27
2019-01-26T12:43:09.150Z,99887.92
2019-01-26T12:45:38.493Z,99882.98
2019-01-26T12:48:07.410Z,99882.98
2019-01-26T12:50:36.615Z,99887.19
2019-01-26T12:53:05.902Z,99885.52
2019-01-26T12:55:34.858Z,99880.29
2019-01-26T12:58:03.843Z,99882.87
2019-01-26T13:00:32.819Z,99881.56
2019-01-26T13:03:01.728Z,99879.42
2019-01-26T13:05:30.610Z,99888.64
2019-01-26T13:07:59.692Z,99888.64
2019-01-26T13:10:43.585Z,99891.69
2019-01-26T13:13:13.302Z,99881.13
2019-01-26T13:15:42.635Z,99881.13
2019-01-26T13:18:12.247Z,99882.32
2019-01-26T13:20:41.532Z,99877.44
2019-01-26T13:23:10.500Z,99871.37
2019-01-26T13:25:40.110Z,99873.75
2019-01-26T13:28:09.415Z,99873.75
2019-01-26T13:30:38.915Z,99862.52
2019-01-26T13:33:08.364Z,99862.52
2019-01-26T13:35:37.553Z,99869.74
2019-01-26T13:38:06.807Z,99867.91
2019-01-26T13:40:37.211Z,99866.92
2019-01-26T13:43:06.865Z,99862.88
2019-01-26T13:45:36.058Z,99863.99
2019-01-26T13:48:06.022Z,99861.09
2019-01-26T13:50:35.714Z,99860.30
2019-01-26T13:53:04.945Z,99856.01
2019-01-26T13:55:34.174Z,99859.02
2019-01-26T13:58:03.072Z,99856.63
2019-01-26T14:00:37.033Z,99853.62
2019-01-26T14:03:06.301Z,99853.62
2019-01-26T14:05:35.281Z,99856.37
2019-01-26T14:08:04.138Z,99844.27
2019-01-26T14:10:33.022Z,99844.27
2019-01-26T14:13:01.881Z,99849.50
2019-01-26T14:15:30.750Z,99849.50
2019-01-26T14:17:59.606Z,99849.77
2019-01-26T14:20:29.414Z,99832.00
2019-01-26T14:22:58.629Z,99839.25
2019-01-26T14:25:27.800Z,99839.25
2019-01-26T14:27:56.865Z,99832.87
2019-01-26T14:30:40.454Z,99839.96
2019-01-26T14:33:09.342Z,99829.24
2019-01-26T14:35:39.507Z,99829.24
2019-01-26T14:38:08.945Z,99831.97
2019-01-26T14:40:37.979Z,99824.75
2019-01-26T14:43:06.729Z,99829.34
2019-01-26T14:45:37.331Z,99818.07
2019-01-26T14:48:06.189Z,99823.81
2019-01-26T14:50:35.083Z,99827.19
2019-01-26T14:53:04.149Z,99826.86
2019-01-26T14:55:33.038Z,99826.03
2019-01-26T14:58:01.894Z,99825.22
2019-01-26T15:00:38.252Z,99829.45
2019-01-26T15:03:07.220Z,99829.16
2019-01-26T15:05:35.999Z,99816.38
2019-01-26T15:08:04.848Z,99818.78
2019-01-26T15:10:33.639Z,99811.39
2019-01-26T15:13:02.623Z,99811.41
2019-01-26T15:15:32.130Z,99809.26
2019-01-26T15:18:01.531Z,99807.44
2019-01-26T15:20:36.060Z,99807.44
2019-01-26T15:23:07.239Z,99801.23
2019-01-26T15:25:37.750Z,99803.77
2019-01-26T15:28:08.138Z,99798.22
2019-01-26T15:30:39.311Z,99799.59
2019-01-26T15:33:09.299Z,99796.06
2019-01-26T15:35:38.658Z,99797.75
2019-01-26T15:38:08.559Z,99795.75
2019-01-26T15:40:38.306Z,99797.11
2019-01-26T15:43:07.814Z,99798.80
2019-01-26T15:45:42.657Z,99794.42
2019-01-26T15:48:12.067Z,99796.09
2019-01-26T15:50:42.061Z,99794.61
2019-01-26T15:53:11.529Z,99788.22
2019-01-26T15:55:41.273Z,99786.69
2019-01-26T15:58:10.888Z,99788.55
2019-01-26T16:00:42.151Z,99787.39
2019-01-26T16:03:11.772Z,99788.03
2019-01-26T16:05:41.310Z,99781.28
2019-01-26T16:08:10.743Z,99781.80
2019-01-26T16:10:39.781Z,99778.59
2019-01-26T16:13:08.744Z,99775.39
2019-01-26T16:15:39.005Z,99772.52
2019-01-26T16:18:10.430Z,99776.39
2019-01-26T16:20:39.817Z,99777.59
2019-01-26T16:23:09.767Z,99770.70
2019-01-26T16:25:39.452Z,99762.61
2019-01-26T16:28:09.156Z,99766.45
2019-01-26T16:30:39.106Z,99762.09
2019-01-26T16:33:08.715Z,99764.14
2019-01-26T16:35:37.708Z,99765.81
2019-01-26T16:38:07.458Z,99761.92
2019-01-26T16:40:37.111Z,99759.41
2019-01-26T16:43:06.704Z,99759.91
2019-01-26T16:45:38.330Z,99750.68
2019-01-26T16:48:09.261Z,99750.00
2019-01-26T16:50:38.882Z,99753.02
2019-01-26T16:53:08.683Z,99746.31
2019-01-26T16:55:37.888Z,99740.11
2019-01-26T16:58:07.627Z,99738.78
2019-01-26T17:00:42.011Z,99740.29
2019-01-26T17:03:12.093Z,99741.64
2019-01-26T17:05:42.158Z,99743.66
2019-01-26T17:08:11.657Z,99739.30
2019-01-26T17:10:40.880Z,99735.91
2019-01-26T17:13:10.723Z,99733.89
2019-01-26T17:15:40.426Z,99731.36
2019-01-26T17:18:13.822Z,99737.77
2019-01-26T17:20:42.135Z,99732.06
2019-01-26T17:23:11.481Z,99729.52
2019-01-26T17:25:40.250Z,99724.52
2019-01-26T17:28:09.304Z,99721.30
2019-01-26T17:30:42.517Z,99716.25
2019-01-26T17:33:11.529Z,99716.60
2019-01-26T17:35:40.384Z,99713.42
2019-01-26T17:38:09.622Z,99705.37
2019-01-26T17:40:38.386Z,99708.57
2019-01-26T17:43:06.963Z,99708.06
2019-01-26T17:45:35.849Z,99699.98
2019-01-26T17:48:05.408Z,99698.66
2019-01-26T17:50:41.892Z,99695.29
2019-01-26T17:53:07.328Z,99691.23
2019-01-26T17:55:37.002Z,99690.57
2019-01-26T17:58:06.546Z,99680.47
2019-01-26T18:00:38.455Z,99680.83
2019-01-26T18:03:08.258Z,99686.19
2019-01-26T18:05:37.856Z,99678.63
2019-01-26T18:08:07.056Z,99679.14
2019-01-26T18:10:36.302Z,99671.22
2019-01-26T18:13:06.044Z,99663.66
2019-01-26T18:15:35.547Z,99662.98
2019-01-26T18:18:05.497Z,99651.74
2019-01-26T18:20:35.504Z,99650.02
2019-01-26T18:23:05.535Z,99647.17
2019-01-26T18:25:41.813Z,99646.84
2019-01-26T18:28:11.879Z,99633.23
2019-01-26T18:30:42.295Z,99635.06
2019-01-26T18:33:12.158Z,99633.69
2019-01-26T18:35:41.957Z,99631.16
2019-01-26T18:38:11.606Z,99617.52
2019-01-26T18:40:41.100Z,99619.37
2019-01-26T18:43:10.658Z,99619.56
2019-01-26T18:45:40.278Z,99622.73
2019-01-26T18:48:09.615Z,99616.00
2019-01-26T18:50:44.400Z,99610.23
2019-01-26T18:53:14.178Z,99604.54
2019-01-26T18:55:43.773Z,99600.66
2019-01-26T18:58:13.393Z,99603.32
2019-01-26T19:00:45.433Z,99607.04
2019-01-26T19:03:23.284Z,99606.88
2019-01-26T19:05:54.224Z,99599.61
2019-01-26T19:08:24.272Z,99598.74
2019-01-26T19:10:54.438Z,99598.23
2019-01-26T19:13:24.450Z,99595.22
2019-01-26T19:15:54.205Z,99592.88
2019-01-26T19:18:24.116Z,99589.19
2019-01-26T19:20:54.061Z,99590.22
2019-01-26T19:23:24.073Z,99580.80
2019-01-26T19:25:54.232Z,99581.31
2019-01-26T19:28:24.247Z,99575.09
2019-01-26T19:30:55.111Z,99570.86
2019-01-26T19:33:25.740Z,99574.03
2019-01-26T19:35:56.211Z,99568.30
2019-01-26T19:38:26.732Z,99571.50
2019-01-26T19:40:56.981Z,99564.58
2019-01-26T19:43:27.117Z,99563.07
2019-01-26T19:45:57.377Z,99556.86
2019-01-26T19:48:27.389Z,99552.81
2019-01-26T19:50:57.864Z,99552.78
2019-01-26T19:53:28.480Z,99552.43
2019-01-26T19:55:58.860Z,99554.45
2019-01-26T19:58:29.066Z,99548.39
2019-01-26T20:00:59.539Z,99549.25
2019-01-26T20:03:29.541Z,99539.48
2019-01-26T20:05:59.916Z,99543.00
2019-01-26T20:08:30.176Z,99542.13
2019-01-26T20:11:00.701Z,99538.89
2019-01-26T20:13:30.913Z,99534.81
2019-01-26T20:16:01.040Z,99533.89
2019-01-26T20:18:31.586Z,99524.53
2019-01-26T20:21:02.265Z,99520.09
2019-01-26T20:23:32.678Z,99514.66
2019-01-26T20:26:03.330Z,99509.23
2019-01-26T20:28:33.591Z,99509.38
2019-01-26T20:31:03.534Z,99504.50
2019-01-26T20:33:33.543Z,99503.42
2019-01-26T20:36:04.309Z,99504.58
2019-01-26T20:38:34.743Z,99496.88
2019-01-26T20:41:04.900Z,99502.33
2019-01-26T20:43:35.005Z,99495.59
2019-01-26T20:46:05.680Z,99486.94
2019-01-26T20:48:36.012Z,99483.53
2019-01-26T20:51:06.367Z,99465.48
2019-01-26T20:53:36.683Z,99468.48
2019-01-26T20:56:06.951Z,99467.97
2019-01-26T20:58:37.469Z,99465.42
2019-01-26T21:01:07.734Z,99470.62
2019-01-26T21:03:37.944Z,99466.52
2019-01-26T21:06:08.316Z,99467.59
2019-01-26T21:08:38.933Z,99457.67
2019-01-26T21:11:09.331Z,99452.91
2019-01-26T21:13:39.418Z,99451.05
2019-01-26T21:16:09.481Z,99451.05
2019-01-26T21:18:39.696Z,99450.67
2019-01-26T21:21:10.104Z,99446.21
2019-01-26T21:23:39.755Z,99431.89
2019-01-26T21:26:09.727Z,99431.89
2019-01-26T21:28:39.633Z,99436.46
2019-01-26T21:31:09.494Z,99435.11
2019-01-26T21:33:39.497Z,99433.53
2019-01-26T21:36:09.559Z,99430.77
2019-01-26T21:38:39.864Z,99424.20
2019-01-26T21:41:09.875Z,99428.45
2019-01-26T21:43:39.546Z,99422.80
2019-01-26T21:46:09.231Z,99423.49
2019-01-26T21:48:39.093Z,99420.55
2019-01-26T21:51:08.930Z,99420.58
2019-01-26T21:53:38.679Z,99423.99
2019-01-26T21:56:08.378Z,99415.39
2019-01-26T21:58:37.870Z,99410.97
2019-01-26T22:01:07.840Z,99407.69
2019-01-26T22:03:37.798Z,99400.32
2019-01-26T22:06:08.117Z,99401.78
2019-01-26T22:08:37.968Z,99402.95
2019-01-26T22:11:07.670Z,99391.19
2019-01-26T22:13:37.224Z,99394.41
2019-01-26T22:16:06.717Z,99380.84
2019-01-26T22:18:35.713Z,99380.02
2019-01-26T22:21:04.475Z,99378.67
2019-01-26T22:23:33.607Z,99378.67
2019-01-26T22:26:02.360Z,99374.34
2019-01-26T22:28:31.707Z,99374.03
2019-01-26T22:31:00.467Z,99353.22
2019-01-26T22:33:29.377Z,99353.22
2019-01-26T22:35:58.581Z,99348.80
2019-01-26T22:38:27.473Z,99351.70
2019-01-26T22:40:56.752Z,99354.77
2019-01-26T22:43:25.698Z,99351.09
2019-01-26T22:45:54.460Z,99350.47
2019-01-26T22:48:23.367Z,99351.48
2019-01-26T22:50:52.122Z,99342.05
2019-01-26T22:53:20.826Z,99330.63
2019-01-26T22:55:49.371Z,99336.54
2019-01-26T22:58:17.953Z,99329.45
2019-01-26T23:00:51.185Z,99331.39
2019-01-26T23:03:25.886Z,99327.72
2019-01-26T23:06:13.925Z,99323.05
2019-01-26T23:08:42.511Z,99312.59
2019-01-26T23:11:16.972Z,99312.59
2019-01-26T23:13:48.591Z,99311.38
2019-01-26T23:16:36.367Z,99307.06
2019-01-26T23:19:23.211Z,99301.50
2019-01-26T23:22:20.756Z,99302.50
2019-01-26T23:25:13.346Z,99294.48
2019-01-26T23:27:50.611Z,99301.88
2019-01-26T23:30:37.382Z,99289.66
2019-01-26T23:33:06.145Z,99289.46
2019-01-26T23:35:34.658Z,99287.11
2019-01-26T23:38:03.077Z,99289.80
2019-01-26T23:40:31.590Z,99283.59
2019-01-26T23:43:00.079Z,99277.09
2019-01-26T23:45:28.527Z,99268.56
2019-01-26T23:47:56.950Z,99268.56
2019-01-26T23:50:25.393Z,99271.56
2019-01-26T23:52:53.886Z,99263.83
2019-01-26T23:55:22.338Z,99264.77
2019-01-26T23:57:50.755Z,99256.95
